Time;durP1;ratioP1;P1;durP2;ratioP2;P2;SDS_P1;SDS_P2;PMS_P1;PMS_P2;Temp;Humidity;BMP_temperature;BMP_pressure;BME280_temperature;BME280_humidity;BME280_pressure;Samples;Min_cycle;Max_cycle;Signal;HPM_P1;HPM_P2
2021/12/18 00:01:18;;;;;;;22.10;16.87;;;3.50;1.00;;;;;;5056495;28;20268;-78
2021/12/18 00:03:44;;;;;;;23.40;17.80;;;3.50;1.00;;;;;;5062041;28;20175;-79
2021/12/18 00:06:10;;;;;;;23.87;18.07;;;3.60;1.00;;;;;;5057271;28;20189;-77
2021/12/18 00:08:36;;;;;;;23.40;17.20;;;3.70;1.00;;;;;;5059911;28;20611;-78
2021/12/18 00:11:02;;;;;;;25.10;18.70;;;3.70;1.00;;;;;;5037694;28;20241;-78
2021/12/18 00:13:28;;;;;;;23.33;17.97;;;3.70;1.00;;;;;;5055488;28;20167;-78
2021/12/18 00:15:54;;;;;;;22.40;17.83;;;3.80;1.00;;;;;;5056036;28;20182;-78
2021/12/18 00:18:20;;;;;;;24.13;17.87;;;3.80;1.00;;;;;;5056226;28;20183;-78
2021/12/18 00:20:45;;;;;;;21.87;17.73;;;3.80;1.00;;;;;;5054798;28;20227;-78
2021/12/18 00:23:11;;;;;;;25.00;19.20;;;3.80;1.00;;;;;;5055038;28;20548;-78
2021/12/18 00:25:37;;;;;;;26.73;19.73;;;3.80;1.00;;;;;;5053855;28;20269;-78
2021/12/18 00:28:03;;;;;;;25.37;18.20;;;3.80;1.00;;;;;;5053713;28;20191;-77
2021/12/18 00:30:28;;;;;;;26.63;19.23;;;3.80;1.00;;;;;;5056785;28;20220;-78
2021/12/18 00:32:54;;;;;;;23.83;18.33;;;3.70;1.00;;;;;;5056972;28;20175;-78
2021/12/18 00:35:20;;;;;;;26.37;18.97;;;3.80;1.00;;;;;;5056898;28;20186;-78
2021/12/18 00:37:46;;;;;;;22.87;17.83;;;3.70;1.00;;;;;;5056079;28;20175;-78
2021/12/18 00:40:18;;;;;;;23.63;18.03;;;3.70;1.00;;;;;;5055054;28;20260;-78
2021/12/18 00:43:20;;;;;;;25.77;19.60;;;3.60;1.00;;;;;;5055548;28;20179;-79
2021/12/18 00:45:33;;;;;;;25.10;18.93;;;3.70;1.00;;;;;;5053233;28;20256;-78
2021/12/18 00:47:59;;;;;;;23.27;17.60;;;3.70;1.00;;;;;;5056599;28;20219;-79
2021/12/18 00:50:30;;;;;;;24.83;19.00;;;3.70;1.00;;;;;;5056696;28;20661;-79
2021/12/18 00:52:55;;;;;;;23.77;17.93;;;3.70;1.00;;;;;;5058006;28;20202;-78
2021/12/18 00:55:21;;;;;;;24.53;18.30;;;3.70;1.00;;;;;;5059491;28;20273;-78
2021/12/18 00:57:48;;;;;;;25.07;19.20;;;3.60;1.00;;;;;;5074599;28;20194;-79
2021/12/18 01:00:21;;;;;;;24.87;18.47;;;3.70;1.00;;;;;;5072212;28;20215;-78
2021/12/18 01:02:48;;;;;;;26.13;19.33;;;3.70;1.00;;;;;;5061500;28;20237;-79
2021/12/18 01:05:14;;;;;;;25.07;19.43;;;3.70;1.00;;;;;;5058868;28;20225;-78
2021/12/18 01:07:40;;;;;;;24.80;19.30;;;3.60;1.00;;;;;;5057872;28;20175;-78
2021/12/18 01:10:37;;;;;;;25.17;18.93;;;3.60;1.00;;;;;;5056917;28;20191;-79
2021/12/18 01:13:05;;;;;;;24.27;17.80;;;3.50;1.00;;;;;;5056579;28;20178;-78
2021/12/18 01:15:35;;;;;;;24.80;18.50;;;3.60;1.00;;;;;;5055777;28;20187;-78
2021/12/18 01:23:30;;;;;;;25.50;19.13;;;3.30;1.00;;;;;;5056340;28;20597;-79
2021/12/18 01:25:57;;;;;;;26.70;19.03;;;3.20;1.00;;;;;;5054863;28;20202;-78
2021/12/18 01:28:23;;;;;;;25.60;19.03;;;3.20;1.00;;;;;;5055881;28;20214;-79
2021/12/18 01:30:48;;;;;;;25.97;19.77;;;3.20;1.00;;;;;;5055342;28;20211;-78
2021/12/18 01:33:14;;;;;;;26.63;19.23;;;3.30;1.00;;;;;;5056145;28;20182;-78
2021/12/18 01:35:40;;;;;;;26.43;19.53;;;3.30;1.00;;;;;;5056636;28;20185;-79
2021/12/18 01:38:05;;;;;;;28.17;19.73;;;3.40;1.00;;;;;;5065621;28;20178;-79
2021/12/18 01:40:31;;;;;;;30.90;21.30;;;3.20;1.00;;;;;;5065587;28;20289;-79
2021/12/18 01:53:23;;;;;;;28.40;20.23;;;3.10;1.00;;;;;;5060840;28;20243;-78
2021/12/18 01:55:51;;;;;;;29.90;20.00;;;3.00;70.20;;;;;;5060598;28;20210;-78
2021/12/18 01:58:21;;;;;;;32.53;20.97;;;3.00;50.20;;;;;;5059359;28;20662;-79
2021/12/18 02:00:47;;;;;;;28.17;20.23;;;3.00;26.30;;;;;;5056877;28;20615;-78
2021/12/18 02:03:13;;;;;;;31.50;20.80;;;3.00;1.00;;;;;;5060965;28;20198;-78
2021/12/18 02:05:38;;;;;;;31.10;21.23;;;3.10;1.00;;;;;;5059606;28;20636;-78
2021/12/18 02:08:05;;;;;;;29.80;20.17;;;3.10;1.00;;;;;;5060266;28;20179;-78
2021/12/18 02:10:42;;;;;;;28.10;19.23;;;3.10;1.00;;;;;;5057462;28;20222;-80
2021/12/18 02:13:22;;;;;;;30.80;20.67;;;3.10;1.00;;;;;;5056070;28;20178;-77
2021/12/18 02:21:21;;;;;;;30.83;18.53;;;3.00;1.00;;;;;;5053741;28;20219;-77
2021/12/18 02:23:46;;;;;;;29.47;18.67;;;2.70;56.30;;;;;;5054623;28;20179;-78
2021/12/18 02:26:13;;;;;;;30.27;19.87;;;2.60;99.90;;;;;;5057985;28;20205;-78
2021/12/18 02:28:40;;;;;;;30.43;19.97;;;2.50;99.90;;;;;;5053823;28;20175;-77
2021/12/18 02:31:06;;;;;;;29.80;20.07;;;2.70;99.90;;;;;;5052905;28;20289;-78
2021/12/18 02:33:32;;;;;;;30.33;19.37;;;2.50;99.90;;;;;;5055109;28;20221;-78
2021/12/18 02:35:59;;;;;;;30.43;19.00;;;2.50;99.90;;;;;;5054611;28;20205;-78
2021/12/18 02:38:46;;;;;;;29.57;18.80;;;2.40;99.90;;;;;;5053358;28;20670;-78
2021/12/18 02:41:25;;;;;;;31.10;19.17;;;2.40;99.90;;;;;;5052926;28;20367;-78
2021/12/18 02:43:51;;;;;;;29.83;18.87;;;2.60;99.90;;;;;;5053440;28;20173;-80
2021/12/18 02:46:19;;;;;;;27.93;17.90;;;2.40;99.90;;;;;;5053650;28;20178;-79
2021/12/18 02:48:47;;;;;;;28.80;19.17;;;2.20;99.90;;;;;;5053204;28;20537;-78
2021/12/18 02:51:14;;;;;;;31.07;18.37;;;2.10;99.90;;;;;;5052372;28;20196;-78
2021/12/18 02:53:49;;;;;;;30.00;19.03;;;2.10;99.90;;;;;;5055362;28;20600;-77
2021/12/18 02:56:16;;;;;;;32.47;19.27;;;2.10;99.90;;;;;;5054283;28;20273;-79
2021/12/18 02:58:46;;;;;;;30.97;19.57;;;2.10;99.90;;;;;;5053227;28;20594;-80
2021/12/18 03:01:15;;;;;;;28.23;17.77;;;2.30;99.90;;;;;;5053536;28;20257;-78
2021/12/18 03:03:43;;;;;;;29.27;19.07;;;2.40;99.90;;;;;;5053879;28;20171;-78
2021/12/18 03:24:59;;;;;;;29.50;17.83;;;2.40;99.90;;;;;;5053378;28;20298;-79
2021/12/18 03:27:26;;;;;;;27.50;17.30;;;2.30;99.90;;;;;;5052650;28;20179;-77
2021/12/18 03:29:52;;;;;;;28.30;17.23;;;2.40;99.90;;;;;;5051728;28;20333;-79
2021/12/18 03:32:18;;;;;;;27.47;17.20;;;2.30;91.70;;;;;;5053341;28;20209;-79
2021/12/18 03:34:43;;;;;;;28.33;17.63;;;2.20;99.90;;;;;;5052678;28;20278;-78
2021/12/18 03:37:09;;;;;;;26.87;16.40;;;2.20;99.90;;;;;;5052428;28;20194;-77
2021/12/18 03:39:35;;;;;;;30.83;17.93;;;2.30;99.90;;;;;;5051958;28;20214;-78
2021/12/18 03:42:02;;;;;;;25.13;16.60;;;2.30;99.90;;;;;;5052358;28;20187;-77
2021/12/18 03:44:27;;;;;;;26.07;17.13;;;2.30;99.90;;;;;;5052157;28;20187;-77
2021/12/18 03:46:53;;;;;;;27.50;16.27;;;2.40;94.00;;;;;;5052423;28;20694;-77
2021/12/18 03:49:19;;;;;;;25.13;16.27;;;2.40;60.60;;;;;;5051867;28;20263;-77
2021/12/18 03:51:44;;;;;;;28.90;17.47;;;2.30;57.90;;;;;;5052719;28;20206;-79
2021/12/18 03:54:10;;;;;;;26.37;17.17;;;2.30;68.10;;;;;;5051702;28;20168;-78
2021/12/18 03:56:35;;;;;;;28.40;16.70;;;2.40;75.80;;;;;;5051934;28;20262;-78
2021/12/18 03:59:01;;;;;;;25.47;16.17;;;2.30;89.10;;;;;;5051882;28;20175;-78
2021/12/18 04:01:27;;;;;;;26.67;17.00;;;2.20;92.50;;;;;;5052177;28;20256;-78
2021/12/18 04:03:53;;;;;;;27.90;16.93;;;2.20;99.90;;;;;;5051903;28;20186;-78
2021/12/18 04:06:19;;;;;;;26.17;16.10;;;2.20;79.00;;;;;;5052395;28;20262;-78
2021/12/18 04:08:45;;;;;;;25.57;15.90;;;2.00;99.90;;;;;;5052686;28;20672;-78
2021/12/18 04:11:10;;;;;;;27.23;16.80;;;2.00;99.90;;;;;;5051837;28;20310;-78
2021/12/18 04:13:36;;;;;;;25.73;16.13;;;2.20;99.90;;;;;;5052429;28;20178;-78
2021/12/18 04:16:02;;;;;;;28.20;16.87;;;2.10;99.90;;;;;;5051845;28;20184;-77
2021/12/18 04:18:28;;;;;;;28.23;16.97;;;2.10;99.90;;;;;;5052141;28;20171;-77
2021/12/18 04:20:54;;;;;;;27.90;16.90;;;2.10;99.90;;;;;;5051065;28;20214;-78
2021/12/18 04:23:19;;;;;;;25.73;16.20;;;2.20;99.90;;;;;;5052306;28;20589;-79
2021/12/18 04:25:45;;;;;;;29.53;17.40;;;2.10;99.90;;;;;;5052268;28;20645;-78
2021/12/18 04:28:11;;;;;;;27.93;17.60;;;2.20;99.90;;;;;;5052466;28;20175;-78
2021/12/18 04:30:36;;;;;;;26.90;17.13;;;2.20;99.90;;;;;;5051384;28;20326;-79
2021/12/18 04:33:02;;;;;;;27.60;17.03;;;2.20;99.90;;;;;;5052518;28;20179;-77
2021/12/18 04:35:28;;;;;;;27.47;16.93;;;2.50;99.90;;;;;;5051674;28;20181;-79
2021/12/18 04:37:54;;;;;;;30.50;18.60;;;2.20;99.90;;;;;;5052162;28;20186;-78
2021/12/18 04:40:25;;;;;;;27.87;16.80;;;2.10;99.90;;;;;;5050634;28;20207;-78
2021/12/18 04:42:51;;;;;;;26.53;16.63;;;2.20;99.90;;;;;;5053250;28;20183;-78
2021/12/18 04:45:17;;;;;;;23.47;15.17;;;2.50;99.90;;;;;;5058930;28;20230;-78
2021/12/18 04:47:42;;;;;;;24.73;15.67;;;2.30;99.90;;;;;;5055437;28;20250;-78
2021/12/18 04:50:08;;;;;;;24.80;15.60;;;2.40;99.90;;;;;;5054064;28;20198;-78
2021/12/18 04:52:34;;;;;;;26.20;15.63;;;2.20;96.10;;;;;;5052855;28;20618;-78
2021/12/18 04:54:59;;;;;;;25.53;15.73;;;2.00;99.90;;;;;;5052385;28;20195;-78
2021/12/18 04:57:25;;;;;;;26.80;16.07;;;2.00;99.90;;;;;;5052969;28;20609;-78
2021/12/18 04:59:51;;;;;;;24.23;15.13;;;2.00;99.90;;;;;;5052394;28;20226;-78
2021/12/18 05:02:21;;;;;;;23.63;14.77;;;2.20;99.90;;;;;;5052706;28;20198;-79
2021/12/18 05:04:47;;;;;;;24.80;15.43;;;2.10;99.90;;;;;;5052605;28;20229;-78
2021/12/18 05:07:12;;;;;;;21.40;13.60;;;2.00;99.90;;;;;;5052387;28;20816;-78
2021/12/18 05:09:39;;;;;;;23.03;15.00;;;2.00;99.90;;;;;;5051474;28;20257;-78
2021/12/18 05:12:06;;;;;;;23.97;14.63;;;2.10;99.90;;;;;;5060100;28;20175;-79
2021/12/18 05:14:31;;;;;;;24.10;15.20;;;2.10;99.90;;;;;;5076124;28;20186;-78
2021/12/18 05:16:56;;;;;;;23.90;14.93;;;2.00;83.40;;;;;;5079437;28;20199;-78
2021/12/18 05:19:22;;;;;;;24.40;15.40;;;2.00;99.90;;;;;;5056127;28;20206;-79
2021/12/18 05:21:48;;;;;;;23.47;14.73;;;2.10;99.90;;;;;;5053858;28;20719;-78
2021/12/18 05:24:13;;;;;;;24.17;14.57;;;2.00;99.90;;;;;;5053884;28;20167;-77
2021/12/18 05:26:39;;;;;;;26.93;16.10;;;2.10;99.60;;;;;;5053879;28;20697;-77
2021/12/18 05:29:04;;;;;;;22.23;13.90;;;1.90;99.90;;;;;;5054532;28;20175;-77
2021/12/18 05:31:30;;;;;;;24.10;14.53;;;2.00;99.90;;;;;;5053469;28;20230;-77
2021/12/18 05:33:59;;;;;;;26.20;14.70;;;2.10;99.90;;;;;;5054270;28;20175;-77
2021/12/18 05:36:51;;;;;;;22.70;14.00;;;2.10;99.90;;;;;;5054656;28;20179;-77
2021/12/18 05:39:17;;;;;;;24.90;15.17;;;2.00;99.90;;;;;;5053501;28;20188;-78
2021/12/18 05:41:42;;;;;;;24.10;15.77;;;2.10;99.90;;;;;;5053723;28;20233;-77
2021/12/18 05:44:08;;;;;;;25.20;15.67;;;2.20;99.90;;;;;;5053979;28;20521;-77
2021/12/18 05:46:34;;;;;;;23.17;14.37;;;2.20;99.90;;;;;;5053782;28;20287;-77
2021/12/18 05:49:01;;;;;;;22.93;14.57;;;2.10;99.90;;;;;;5053509;28;20271;-77
2021/12/18 05:51:26;;;;;;;24.77;14.97;;;2.10;99.90;;;;;;5053439;28;20199;-77
2021/12/18 05:53:52;;;;;;;25.00;15.17;;;2.20;99.90;;;;;;5053854;28;20175;-77
2021/12/18 05:56:17;;;;;;;21.33;13.87;;;2.10;99.90;;;;;;5054280;28;20202;-77
2021/12/18 05:58:44;;;;;;;24.37;14.40;;;2.20;99.90;;;;;;5054950;28;20168;-77
2021/12/18 06:01:11;;;;;;;23.73;14.07;;;1.90;99.90;;;;;;5053790;28;20257;-77
2021/12/18 06:03:36;;;;;;;24.33;14.43;;;1.70;99.90;;;;;;5054393;28;20586;-77
2021/12/18 06:06:02;;;;;;;23.47;15.20;;;1.90;99.90;;;;;;5066314;28;20183;-77
2021/12/18 06:08:31;;;;;;;23.70;14.10;;;2.10;99.90;;;;;;5066423;28;20185;-77
2021/12/18 06:11:00;;;;;;;23.60;15.23;;;2.10;99.90;;;;;;5058043;28;20195;-77
2021/12/18 06:13:26;;;;;;;21.50;13.73;;;2.20;99.90;;;;;;5054713;28;20672;-77
2021/12/18 06:15:51;;;;;;;21.13;13.23;;;2.20;99.90;;;;;;5053910;28;20186;-78
2021/12/18 06:18:17;;;;;;;20.37;13.27;;;2.10;99.90;;;;;;5053704;28;20179;-78
2021/12/18 06:20:42;;;;;;;21.80;13.63;;;2.10;99.90;;;;;;5054032;28;20299;-78
2021/12/18 06:23:08;;;;;;;20.53;13.17;;;2.20;99.90;;;;;;5056996;28;20163;-78
2021/12/18 06:25:33;;;;;;;22.40;13.57;;;2.10;99.90;;;;;;5057014;28;20207;-78
2021/12/18 06:27:59;;;;;;;20.00;13.20;;;2.10;99.90;;;;;;5055131;28;20171;-78
2021/12/18 06:32:53;;;;;;;21.43;13.17;;;2.20;96.90;;;;;;5052160;28;20199;-77
2021/12/18 06:35:19;;;;;;;21.03;12.60;;;2.30;89.20;;;;;;5053284;28;20182;-78
2021/12/18 06:37:44;;;;;;;21.10;12.60;;;2.20;78.90;;;;;;5053217;28;20175;-79
2021/12/18 06:40:10;;;;;;;20.97;12.63;;;2.30;58.50;;;;;;5052854;28;20203;-77
2021/12/18 06:42:36;;;;;;;19.57;12.00;;;2.20;99.90;;;;;;5053167;28;20263;-77
2021/12/18 06:45:03;;;;;;;23.70;13.10;;;2.30;99.60;;;;;;5053130;28;20171;-79
2021/12/18 06:47:28;;;;;;;21.10;13.17;;;2.30;36.90;;;;;;5052838;28;20540;-76
2021/12/18 06:49:54;;;;;;;19.93;12.33;;;2.30;45.00;;;;;;5052671;28;20187;-76
2021/12/18 06:52:19;;;;;;;18.90;11.73;;;2.40;19.40;;;;;;5053152;28;20520;-76
2021/12/18 06:54:45;;;;;;;19.10;12.20;;;2.40;4.60;;;;;;5052701;28;20321;-76
2021/12/18 06:57:10;;;;;;;20.40;12.73;;;2.50;37.50;;;;;;5052879;28;20180;-76
2021/12/18 06:59:36;;;;;;;19.33;11.80;;;2.30;10.30;;;;;;5052441;28;20524;-78
2021/12/18 07:02:02;;;;;;;19.40;12.83;;;2.50;22.70;;;;;;5052673;28;20557;-77
2021/12/18 07:04:27;;;;;;;22.60;13.00;;;2.40;21.90;;;;;;5052843;28;20222;-77
2021/12/18 07:06:54;;;;;;;19.57;12.17;;;2.40;33.20;;;;;;5052804;28;20183;-77
2021/12/18 07:09:20;;;;;;;19.17;11.93;;;2.40;10.00;;;;;;5052261;28;20175;-78
2021/12/18 07:11:46;;;;;;;19.33;11.77;;;2.40;23.90;;;;;;5052257;28;20191;-75
2021/12/18 07:14:12;;;;;;;19.83;12.07;;;2.40;25.10;;;;;;5052522;28;20179;-77
2021/12/18 07:16:38;;;;;;;17.53;11.70;;;2.40;28.40;;;;;;5052278;28;20613;-78
2021/12/18 07:19:04;;;;;;;18.60;11.53;;;2.40;14.50;;;;;;5052391;28;20700;-76
2021/12/18 07:21:29;;;;;;;17.13;11.47;;;2.40;13.80;;;;;;5051956;28;20226;-77
2021/12/18 07:23:55;;;;;;;22.13;12.83;;;2.40;30.20;;;;;;5052530;28;20238;-79
2021/12/18 07:26:21;;;;;;;20.53;12.63;;;2.50;29.30;;;;;;5052353;28;20175;-78
2021/12/18 07:28:46;;;;;;;18.67;12.13;;;2.50;25.90;;;;;;5053063;28;20202;-80
2021/12/18 07:31:12;;;;;;;18.97;11.53;;;2.50;20.30;;;;;;5051916;28;20215;-76
2021/12/18 07:33:41;;;;;;;20.03;13.13;;;2.50;13.00;;;;;;5061022;28;20175;-78
2021/12/18 07:36:08;;;;;;;17.60;11.33;;;2.40;16.40;;;;;;5062826;28;20186;-77
2021/12/18 07:38:34;;;;;;;19.07;12.33;;;2.40;17.70;;;;;;5057614;28;20196;-78
2021/12/18 07:41:00;;;;;;;19.37;12.00;;;2.40;1.00;;;;;;5064205;28;20218;-79
2021/12/18 07:43:25;;;;;;;20.37;12.87;;;2.40;1.00;;;;;;5063287;28;20254;-79
2021/12/18 07:45:51;;;;;;;20.87;12.63;;;2.50;77.20;;;;;;5060478;28;20171;-77
2021/12/18 07:48:17;;;;;;;19.63;11.87;;;2.40;37.30;;;;;;5062087;28;20253;-78
2021/12/18 07:50:43;;;;;;;20.83;12.53;;;2.40;48.80;;;;;;5061663;28;20270;-78
2021/12/18 07:53:09;;;;;;;21.70;12.87;;;2.50;31.90;;;;;;5060776;28;20278;-77
2021/12/18 07:55:34;;;;;;;20.07;12.27;;;2.50;19.60;;;;;;5061038;28;20632;-80
2021/12/18 07:58:00;;;;;;;21.17;13.60;;;2.60;1.30;;;;;;5062294;28;20174;-76
2021/12/18 08:00:25;;;;;;;21.40;12.97;;;2.70;1.00;;;;;;5059077;28;20625;-77
2021/12/18 08:02:51;;;;;;;20.13;13.17;;;2.50;1.00;;;;;;5059997;28;20620;-79
2021/12/18 08:05:17;;;;;;;19.67;11.93;;;2.50;1.00;;;;;;5060282;28;20190;-77
2021/12/18 08:07:43;;;;;;;20.43;10.83;;;2.50;1.00;;;;;;5061575;28;20171;-77
2021/12/18 08:10:09;;;;;;;19.10;12.07;;;2.60;1.00;;;;;;5060049;28;20195;-78
2021/12/18 08:12:34;;;;;;;19.20;11.50;;;2.40;3.30;;;;;;5063337;28;20205;-77
2021/12/18 08:15:00;;;;;;;19.23;11.90;;;2.50;1.00;;;;;;5059949;28;20564;-79
2021/12/18 08:17:26;;;;;;;18.00;12.20;;;2.50;1.00;;;;;;5061811;28;20185;-77
2021/12/18 08:19:52;;;;;;;18.60;11.47;;;2.50;5.40;;;;;;5051147;28;20226;-77
2021/12/18 08:22:18;;;;;;;17.97;11.53;;;2.50;1.00;;;;;;5051732;28;20175;-77
2021/12/18 08:24:44;;;;;;;19.43;11.80;;;2.50;1.00;;;;;;5051992;28;20175;-77
2021/12/18 08:27:09;;;;;;;17.97;11.13;;;2.40;1.00;;;;;;5051465;28;20175;-78
2021/12/18 08:29:35;;;;;;;19.63;11.83;;;2.50;1.00;;;;;;5051035;28;20261;-79
2021/12/18 08:32:01;;;;;;;18.33;11.20;;;2.70;1.00;;;;;;5051341;28;20187;-76
2021/12/18 08:34:27;;;;;;;19.17;12.17;;;2.70;80.70;;;;;;5051534;28;20186;-77
2021/12/18 08:36:52;;;;;;;19.17;12.67;;;2.80;39.10;;;;;;5051918;28;20179;-75
2021/12/18 08:39:18;;;;;;;19.50;13.00;;;2.80;1.00;;;;;;5051165;28;20274;-77
2021/12/18 08:41:45;;;;;;;20.10;12.73;;;3.10;1.00;;;;;;5059087;28;20214;-76
2021/12/18 08:44:12;;;;;;;18.07;11.87;;;3.30;1.00;;;;;;5060851;28;20171;-76
2021/12/18 08:46:38;;;;;;;19.47;13.47;;;2.90;1.00;;;;;;5062456;28;20601;-76
2021/12/18 08:49:04;;;;;;;19.50;13.20;;;2.90;1.00;;;;;;5060365;28;20644;-77
2021/12/18 08:51:31;;;;;;;21.43;14.10;;;2.70;1.00;;;;;;5066587;28;20684;-77
2021/12/18 08:53:56;;;;;;;19.30;12.97;;;2.80;1.00;;;;;;5068676;28;20174;-78
2021/12/18 08:56:22;;;;;;;17.60;11.27;;;2.80;1.00;;;;;;5065591;28;20206;-77
2021/12/18 08:58:50;;;;;;;16.30;10.63;;;2.70;1.00;;;;;;5050108;28;20206;-77
2021/12/18 09:01:15;;;;;;;16.00;10.70;;;2.60;1.00;;;;;;5060277;28;20215;-78
2021/12/18 09:03:41;;;;;;;17.13;11.73;;;2.60;1.00;;;;;;5065335;28;20178;-77
2021/12/18 09:06:07;;;;;;;20.93;13.30;;;2.50;1.00;;;;;;5064331;28;20167;-76
2021/12/18 09:08:32;;;;;;;17.37;11.90;;;2.60;1.00;;;;;;5057973;28;20179;-77
2021/12/18 09:10:58;;;;;;;18.23;11.77;;;2.50;1.00;;;;;;5061549;28;20186;-76
2021/12/18 09:13:23;;;;;;;18.27;11.77;;;2.50;1.00;;;;;;5062227;28;20178;-76
2021/12/18 09:15:49;;;;;;;17.60;11.43;;;2.70;1.00;;;;;;5073321;28;20213;-78
2021/12/18 09:18:14;;;;;;;16.17;10.60;;;2.70;1.00;;;;;;5074679;28;20182;-77
2021/12/18 09:20:44;;;;;;;17.57;11.30;;;2.50;1.00;;;;;;5074433;28;20591;-77
2021/12/18 09:23:12;;;;;;;16.13;10.93;;;2.50;1.00;;;;;;5074521;28;20232;-76
2021/12/18 09:25:38;;;;;;;18.43;12.30;;;2.40;1.00;;;;;;5074529;28;20183;-77
2021/12/18 09:28:04;;;;;;;20.37;12.40;;;2.60;1.00;;;;;;5074629;28;20673;-80
2021/12/18 09:30:30;;;;;;;17.67;11.17;;;2.90;1.00;;;;;;5074118;28;20195;-79
2021/12/18 09:32:55;;;;;;;17.27;10.87;;;2.50;1.00;;;;;;5070262;28;20198;-76
2021/12/18 09:35:21;;;;;;;20.33;12.90;;;2.60;1.00;;;;;;5062757;28;20573;-77
2021/12/18 09:37:47;;;;;;;18.13;11.77;;;2.80;1.00;;;;;;5059284;28;20172;-79
2021/12/18 09:40:13;;;;;;;21.17;12.80;;;2.90;1.00;;;;;;5062675;28;20282;-76
2021/12/18 09:42:40;;;;;;;20.40;12.27;;;2.90;1.00;;;;;;5063044;28;20224;-78
2021/12/18 09:45:06;;;;;;;18.80;12.60;;;2.90;1.00;;;;;;5068617;28;20167;-77
2021/12/18 09:47:32;;;;;;;19.30;12.37;;;2.90;1.00;;;;;;5074204;28;20185;-77
2021/12/18 09:49:58;;;;;;;18.70;12.40;;;3.10;1.00;;;;;;5063016;28;20190;-79
2021/12/18 09:52:25;;;;;;;19.47;12.27;;;2.60;1.00;;;;;;5053982;28;20210;-79
2021/12/18 09:54:56;;;;;;;17.97;11.07;;;2.30;1.00;;;;;;5054135;28;20175;-76
2021/12/18 09:57:22;;;;;;;14.60;10.47;;;2.70;1.00;;;;;;5054339;28;20188;-76
2021/12/18 09:59:47;;;;;;;16.50;10.73;;;2.90;1.00;;;;;;5053701;28;20595;-76
2021/12/18 10:02:13;;;;;;;16.30;10.40;;;2.80;1.00;;;;;;5053207;28;20191;-77
2021/12/18 10:04:39;;;;;;;17.50;11.63;;;2.70;1.00;;;;;;5053661;28;20168;-79
2021/12/18 10:07:16;;;;;;;16.17;10.37;;;2.90;1.00;;;;;;5053699;28;20550;-76
2021/12/18 10:09:43;;;;;;;16.03;10.67;;;3.10;1.00;;;;;;5053130;28;20640;-77
2021/12/18 10:12:23;;;;;;;15.23;10.47;;;3.20;1.00;;;;;;5053713;28;20171;-76
2021/12/18 10:14:48;;;;;;;18.00;11.43;;;3.30;99.90;;;;;;5053995;28;20167;-75
2021/12/18 10:17:18;;;;;;;18.10;11.60;;;3.30;99.90;;;;;;5053852;28;20179;-77
2021/12/18 10:19:44;;;;;;;15.60;10.70;;;3.00;99.90;;;;;;5052930;28;20210;-78
2021/12/18 10:22:13;;;;;;;13.53;9.47;;;2.90;99.90;;;;;;5061824;28;20182;-76
2021/12/18 10:24:43;;;;;;;16.80;11.07;;;2.90;99.90;;;;;;5073669;28;20194;-78
2021/12/18 10:27:26;;;;;;;17.47;11.00;;;2.70;1.00;;;;;;5069213;28;20209;-76
2021/12/18 10:29:55;;;;;;;17.53;11.53;;;2.60;1.00;;;;;;5061325;28;20561;-76
2021/12/18 10:32:23;;;;;;;15.57;10.77;;;2.70;1.00;;;;;;5061571;28;20187;-77
2021/12/18 10:34:54;;;;;;;15.73;10.07;;;2.80;99.90;;;;;;5063038;28;20171;-77
2021/12/18 10:37:31;;;;;;;15.80;10.13;;;2.90;1.00;;;;;;5063640;28;20635;-77
2021/12/18 10:40:10;;;;;;;14.50;10.07;;;2.60;1.00;;;;;;5060368;28;20214;-76
2021/12/18 10:42:39;;;;;;;15.00;10.23;;;2.50;1.00;;;;;;5064161;28;20178;-75
2021/12/18 10:45:24;;;;;;;15.47;10.17;;;2.90;99.90;;;;;;5066358;28;20238;-74
2021/12/18 10:48:03;;;;;;;15.10;10.40;;;2.90;99.90;;;;;;5052790;28;20250;-76
2021/12/18 10:50:42;;;;;;;15.13;10.23;;;2.90;1.00;;;;;;5052234;28;20199;-76
2021/12/18 10:53:17;;;;;;;14.37;10.13;;;3.10;99.90;;;;;;5052808;28;20178;-76
2021/12/18 10:55:55;;;;;;;15.63;9.97;;;3.10;91.40;;;;;;5052937;28;20583;-75
2021/12/18 10:58:37;;;;;;;17.33;10.77;;;3.10;99.90;;;;;;5052569;28;20175;-74
2021/12/18 11:01:03;;;;;;;15.73;10.53;;;3.20;99.90;;;;;;5060339;28;20219;-74
2021/12/18 11:03:35;;;;;;;16.70;11.20;;;3.20;99.20;;;;;;5066611;28;20591;-74
2021/12/18 11:06:01;;;;;;;16.10;10.83;;;3.30;52.00;;;;;;5059519;28;20266;-73
2021/12/18 11:08:26;;;;;;;15.57;10.07;;;3.30;1.00;;;;;;5063841;28;20262;-74
2021/12/18 11:13:38;;;;;;;14.43;9.30;;;3.20;1.00;;;;;;5062629;28;20281;-74
2021/12/18 11:13:50;;;;;;;16.57;10.03;;;3.10;20.30;;;;;;5060485;28;20187;-74
2021/12/18 11:16:17;;;;;;;15.77;10.47;;;3.60;1.00;;;;;;5056370;28;20179;-75
2021/12/18 11:18:45;;;;;;;16.10;11.10;;;3.60;1.00;;;;;;5052609;28;20179;-75
2021/12/18 11:21:11;;;;;;;16.83;10.23;;;3.20;64.70;;;;;;5051599;28;20230;-75
2021/12/18 11:23:43;;;;;;;16.40;10.10;;;3.30;1.00;;;;;;5052157;28;20179;-76
2021/12/18 11:26:11;;;;;;;15.27;10.20;;;3.50;1.00;;;;;;5051992;28;20245;-76
2021/12/18 11:28:42;;;;;;;15.43;10.53;;;3.40;1.00;;;;;;5052110;28;20182;-75
2021/12/18 11:31:07;;;;;;;14.97;10.43;;;3.40;1.00;;;;;;5051462;28;20228;-76
2021/12/18 11:33:34;;;;;;;15.17;10.47;;;3.50;1.00;;;;;;5052289;28;20182;-75
2021/12/18 11:36:03;;;;;;;14.37;10.10;;;3.60;99.90;;;;;;5051768;28;20167;-75
2021/12/18 11:38:30;;;;;;;18.40;11.27;;;3.30;1.00;;;;;;5051887;28;20175;-75
2021/12/18 11:40:57;;;;;;;16.03;10.53;;;3.30;99.90;;;;;;5051050;28;20307;-75
2021/12/18 11:43:36;;;;;;;17.90;11.57;;;3.50;45.40;;;;;;5051526;28;20203;-75
2021/12/18 11:46:22;;;;;;;16.07;10.77;;;3.50;1.00;;;;;;5051497;28;20240;-74
2021/12/18 11:49:03;;;;;;;14.53;10.33;;;3.30;1.00;;;;;;5056914;28;20181;-77
2021/12/18 11:51:30;;;;;;;16.07;11.30;;;3.10;99.90;;;;;;5062411;28;20202;-77
2021/12/18 11:53:57;;;;;;;18.17;12.03;;;3.20;99.90;;;;;;5051750;28;20240;-77
2021/12/18 11:56:24;;;;;;;16.87;10.70;;;3.20;1.00;;;;;;5051713;28;20581;-77
2021/12/18 11:58:49;;;;;;;18.83;11.73;;;3.70;1.00;;;;;;5051957;28;20209;-79
2021/12/18 12:01:25;;;;;;;14.90;10.80;;;4.00;46.40;;;;;;5060818;28;20245;-78
2021/12/18 12:03:50;;;;;;;17.93;10.93;;;3.80;99.90;;;;;;5052865;28;20184;-79
2021/12/18 12:06:19;;;;;;;18.93;11.93;;;3.60;1.00;;;;;;5059597;28;20179;-76
2021/12/18 12:08:45;;;;;;;16.87;11.33;;;3.50;1.00;;;;;;5051570;28;20175;-77
2021/12/18 12:11:16;;;;;;;17.83;11.60;;;3.50;94.30;;;;;;5049367;28;20194;-78
2021/12/18 12:13:53;;;;;;;18.23;11.77;;;3.70;1.00;;;;;;5066726;28;20170;-78
2021/12/18 12:16:19;;;;;;;19.83;13.27;;;3.80;99.90;;;;;;5071559;28;20174;-79
2021/12/18 12:19:15;;;;;;;19.37;12.10;;;3.80;99.90;;;;;;5071157;28;20185;-79
2021/12/18 12:21:43;;;;;;;19.57;13.40;;;4.00;1.00;;;;;;5060050;28;20258;-78
2021/12/18 12:24:10;;;;;;;20.30;13.47;;;3.70;99.90;;;;;;5051555;28;20557;-78
2021/12/18 12:26:35;;;;;;;19.10;12.80;;;3.60;99.90;;;;;;5055903;28;20171;-78
2021/12/18 12:29:02;;;;;;;19.37;12.83;;;3.60;1.00;;;;;;5057106;28;20317;-79
2021/12/18 12:31:28;;;;;;;18.77;12.67;;;3.70;1.00;;;;;;5059843;28;20210;-79
2021/12/18 12:34:21;;;;;;;18.10;12.30;;;3.90;1.00;;;;;;5059068;28;20183;-77
2021/12/18 12:36:47;;;;;;;18.17;12.10;;;3.30;1.00;;;;;;5055644;28;20251;-79
2021/12/18 12:39:15;;;;;;;17.83;12.20;;;3.40;99.90;;;;;;5055281;28;20186;-79
2021/12/18 12:41:52;;;;;;;22.20;13.00;;;3.80;1.00;;;;;;5055867;28;20214;-78
2021/12/18 12:44:32;;;;;;;19.27;12.93;;;3.50;99.90;;;;;;5055585;28;20166;-77
2021/12/18 12:47:27;;;;;;;20.43;13.60;;;3.50;1.00;;;;;;5055715;28;20186;-77
2021/12/18 12:50:14;;;;;;;24.10;13.10;;;3.30;99.90;;;;;;5054464;28;20195;-79
2021/12/18 12:52:54;;;;;;;23.57;13.73;;;3.70;45.70;;;;;;5054905;28;20175;-79
2021/12/18 12:55:22;;;;;;;19.67;13.00;;;3.90;1.00;;;;;;5055199;28;20190;-77
2021/12/18 12:58:21;;;;;;;20.73;13.13;;;3.80;1.00;;;;;;5055075;28;20170;-77
2021/12/18 13:00:53;;;;;;;23.10;13.87;;;3.70;1.00;;;;;;5054476;28;20234;-78
2021/12/18 13:03:22;;;;;;;21.40;13.33;;;3.80;1.00;;;;;;5054559;28;20171;-78
2021/12/18 13:06:09;;;;;;;21.20;13.77;;;4.00;99.90;;;;;;5055675;28;20167;-80
2021/12/18 13:08:37;;;;;;;19.40;12.53;;;3.70;1.00;;;;;;5055415;28;20241;-79
2021/12/18 13:11:04;;;;;;;23.40;13.70;;;4.10;1.00;;;;;;5054034;28;20214;-76
2021/12/18 13:13:33;;;;;;;21.57;13.50;;;4.20;1.00;;;;;;5054572;28;20651;-78
2021/12/18 13:16:16;;;;;;;21.87;13.90;;;4.00;1.00;;;;;;5054338;28;20206;-79
2021/12/18 13:18:48;;;;;;;20.13;13.00;;;3.90;1.00;;;;;;5054293;28;20781;-77
2021/12/18 13:21:15;;;;;;;23.17;14.40;;;4.10;99.90;;;;;;5053452;28;20214;-77
2021/12/18 13:23:44;;;;;;;20.90;13.60;;;4.20;1.00;;;;;;5054478;28;20176;-77
2021/12/18 13:26:12;;;;;;;20.90;13.63;;;4.20;99.90;;;;;;5054369;28;20195;-77
2021/12/18 13:28:57;;;;;;;20.87;13.93;;;4.60;1.00;;;;;;5054651;28;20258;-77